createdAt,value
2023-03-19T00:01:14.365Z,9.35
2023-03-19T00:03:43.206Z,7.30
2023-03-19T00:06:12.374Z,10.10
2023-03-19T00:08:40.395Z,11.05
2023-03-19T00:11:09.830Z,11.10
2023-03-19T00:13:37.515Z,11.57
2023-03-19T00:16:05.397Z,11.02
2023-03-19T00:18:33.319Z,10.23
2023-03-19T00:21:01.868Z,10.32
2023-03-19T00:23:29.611Z,10.80
2023-03-19T00:25:57.607Z,13.57
2023-03-19T00:28:26.113Z,12.20
2023-03-19T00:30:53.825Z,13.73
2023-03-19T00:33:21.881Z,15.45
2023-03-19T00:35:49.648Z,12.03
2023-03-19T00:38:17.314Z,12.23
2023-03-19T00:40:45.279Z,16.42
2023-03-19T00:43:13.050Z,8.77
2023-03-19T00:45:41.889Z,10.63
2023-03-19T00:48:09.684Z,8.80
2023-03-19T00:50:37.393Z,11.07
2023-03-19T00:53:04.726Z,12.98
2023-03-19T00:55:32.436Z,11.20
2023-03-19T00:58:03.588Z,15.57
2023-03-19T01:00:30.983Z,16.20
2023-03-19T01:03:00.189Z,11.75
2023-03-19T01:05:27.991Z,15.75
2023-03-19T01:07:55.919Z,12.00
2023-03-19T01:10:25.099Z,13.73
2023-03-19T01:12:52.887Z,13.48
2023-03-19T01:17:51.210Z,14.05
2023-03-19T01:20:19.293Z,11.23
2023-03-19T01:22:47.016Z,14.52
2023-03-19T01:28:21.495Z,16.90
2023-03-19T01:51:57.526Z,13.70
2023-03-19T02:40:06.614Z,16.70
2023-03-19T02:58:29.657Z,18.13
2023-03-19T03:12:47.458Z,16.55
2023-03-19T03:17:51.636Z,18.52
2023-03-19T03:20:20.553Z,15.73
2023-03-19T03:25:25.011Z,18.52
2023-03-19T03:27:54.497Z,16.48
2023-03-19T03:30:22.258Z,21.05
2023-03-19T03:32:50.043Z,16.60
2023-03-19T03:38:09.476Z,18.48
2023-03-19T03:40:38.001Z,14.88
2023-03-19T03:43:05.881Z,18.35
2023-03-19T03:45:35.025Z,17.02
2023-03-19T03:48:03.028Z,16.52
2023-03-19T03:53:01.912Z,19.27
2023-03-19T03:55:29.620Z,18.45
2023-03-19T03:57:57.464Z,19.25
2023-03-19T04:00:25.870Z,19.10
2023-03-19T04:09:10.040Z,19.17
2023-03-19T04:11:38.568Z,20.92
2023-03-19T04:16:44.393Z,21.23
2023-03-19T04:19:12.103Z,22.50
2023-03-19T04:21:39.888Z,21.15
2023-03-19T04:24:10.529Z,18.13
2023-03-19T04:29:28.668Z,19.73
2023-03-19T04:31:56.810Z,20.77
2023-03-19T04:37:40.638Z,22.53
2023-03-19T04:40:08.554Z,18.60
2023-03-19T04:42:36.300Z,20.13
2023-03-19T04:45:04.723Z,18.15
2023-03-19T04:47:32.513Z,16.67
2023-03-19T04:50:00.240Z,20.00
2023-03-19T04:52:29.456Z,20.75
2023-03-19T04:54:57.539Z,21.42
2023-03-19T04:57:25.614Z,20.77
2023-03-19T05:02:39.999Z,18.45
2023-03-19T05:05:07.950Z,19.35
2023-03-19T05:07:37.701Z,20.92
2023-03-19T05:15:39.732Z,20.58
2023-03-19T05:18:08.751Z,21.92
2023-03-19T05:23:13.452Z,18.55
2023-03-19T05:41:22.939Z,20.83
2023-03-19T06:03:04.059Z,21.02
2023-03-19T06:08:32.850Z,21.17
2023-03-19T06:28:49.953Z,23.08
2023-03-19T06:31:18.023Z,19.85
2023-03-19T06:33:46.032Z,19.50
2023-03-19T06:36:13.762Z,19.38
2023-03-19T06:38:41.859Z,18.27
2023-03-19T06:41:09.620Z,22.13
2023-03-19T06:43:37.465Z,20.15
2023-03-19T06:46:08.817Z,21.70
2023-03-19T06:48:37.557Z,20.00
2023-03-19T06:51:07.480Z,20.65
2023-03-19T06:53:36.394Z,21.60
2023-03-19T06:56:04.742Z,20.75
2023-03-19T06:58:32.614Z,21.10
2023-03-19T07:01:00.625Z,22.85
2023-03-19T07:03:29.499Z,22.50
2023-03-19T07:05:57.236Z,19.80
2023-03-19T07:08:38.552Z,20.83
2023-03-19T07:11:09.178Z,20.27
2023-03-19T07:13:38.274Z,16.92
2023-03-19T07:16:06.325Z,25.92
2023-03-19T07:18:35.087Z,19.27
2023-03-19T07:21:05.001Z,19.58
2023-03-19T07:23:32.786Z,20.02
2023-03-19T07:26:03.992Z,19.75
2023-03-19T07:28:38.641Z,21.65
2023-03-19T07:31:07.320Z,19.00
2023-03-19T07:33:36.931Z,19.73
2023-03-19T07:36:08.496Z,18.02
2023-03-19T07:38:40.818Z,15.90
2023-03-19T07:44:28.901Z,19.20
2023-03-19T07:46:57.907Z,20.25
2023-03-19T07:49:27.222Z,17.98
2023-03-19T07:51:57.035Z,13.23
2023-03-19T07:54:25.125Z,16.05
2023-03-19T07:56:53.199Z,13.85
2023-03-19T07:59:22.621Z,14.50
2023-03-19T08:01:53.008Z,13.20
2023-03-19T08:04:21.460Z,14.80
2023-03-19T08:06:53.836Z,17.65
2023-03-19T08:09:21.705Z,13.30
2023-03-19T08:11:53.836Z,19.17
2023-03-19T08:14:30.422Z,14.82
2023-03-19T08:16:59.775Z,14.77
2023-03-19T08:19:29.585Z,15.20
2023-03-19T08:21:57.475Z,20.40
2023-03-19T08:24:25.556Z,16.98
2023-03-19T08:26:53.997Z,19.98
2023-03-19T08:29:22.029Z,17.88
2023-03-19T08:31:50.159Z,17.92
2023-03-19T08:34:18.675Z,17.17
2023-03-19T08:36:48.337Z,17.30
2023-03-19T08:39:18.007Z,15.13
2023-03-19T08:41:48.682Z,22.27
2023-03-19T08:44:16.442Z,18.45
2023-03-19T08:46:47.231Z,17.17
2023-03-19T08:49:16.729Z,18.80
2023-03-19T08:51:46.075Z,19.10
2023-03-19T08:54:14.006Z,19.63
2023-03-19T08:56:41.743Z,19.92
2023-03-19T08:59:09.670Z,21.58
2023-03-19T09:01:41.911Z,20.50
2023-03-19T09:04:09.682Z,19.67
2023-03-19T09:06:37.445Z,18.77
2023-03-19T09:09:06.974Z,19.30
2023-03-19T09:11:35.879Z,18.80
2023-03-19T09:14:06.009Z,19.27
2023-03-19T09:16:33.734Z,19.17
2023-03-19T09:19:04.006Z,19.77
2023-03-19T09:21:31.783Z,18.40
2023-03-19T09:24:01.304Z,17.60
2023-03-19T09:26:29.616Z,18.15
2023-03-19T09:28:57.876Z,20.63
2023-03-19T09:31:29.551Z,18.70
2023-03-19T09:33:59.125Z,19.67
2023-03-19T09:36:28.152Z,20.45
2023-03-19T09:38:56.312Z,17.55
2023-03-19T09:41:37.099Z,17.67
2023-03-19T09:44:07.518Z,17.75
2023-03-19T09:46:38.491Z,18.30
2023-03-19T09:49:18.710Z,19.10
2023-03-19T09:51:58.443Z,17.98
2023-03-19T09:54:28.345Z,18.92
2023-03-19T09:56:56.674Z,18.27
2023-03-19T09:59:25.423Z,27.85
2023-03-19T10:02:06.618Z,19.15
2023-03-19T10:04:40.559Z,17.05
2023-03-19T10:07:29.834Z,19.20
2023-03-19T10:10:17.912Z,16.60
2023-03-19T10:12:53.723Z,18.15
2023-03-19T10:15:31.188Z,19.42
2023-03-19T10:17:59.012Z,15.68
2023-03-19T10:20:37.065Z,18.55
2023-03-19T10:23:14.893Z,17.42
2023-03-19T10:25:44.927Z,17.83
2023-03-19T10:28:15.442Z,16.95
2023-03-19T10:30:43.877Z,17.23
2023-03-19T10:33:14.829Z,16.90
2023-03-19T10:35:44.951Z,18.92
2023-03-19T10:38:23.432Z,16.38
2023-03-19T10:41:10.981Z,16.73
2023-03-19T10:43:41.114Z,19.08
2023-03-19T10:46:13.928Z,19.08
2023-03-19T10:48:46.982Z,21.30
2023-03-19T10:51:16.483Z,20.70
2023-03-19T10:53:46.642Z,18.67
2023-03-19T10:56:32.445Z,19.95
2023-03-19T10:59:01.951Z,19.77
2023-03-19T11:01:35.497Z,17.98
2023-03-19T11:04:12.270Z,19.83
2023-03-19T11:06:40.267Z,18.33
2023-03-19T11:09:13.753Z,19.58
2023-03-19T11:11:51.759Z,17.40
2023-03-19T11:14:29.120Z,20.17
2023-03-19T11:16:57.735Z,17.67
2023-03-19T11:19:28.599Z,17.23
2023-03-19T11:22:18.932Z,17.05
2023-03-19T11:24:52.895Z,21.45
2023-03-19T11:27:27.204Z,19.98
2023-03-19T11:29:55.121Z,20.85
2023-03-19T11:32:38.443Z,24.30
2023-03-19T11:35:29.138Z,21.85
2023-03-19T11:38:03.316Z,20.05
2023-03-19T11:40:43.192Z,18.70
2023-03-19T11:43:13.801Z,19.75
2023-03-19T11:46:04.975Z,19.20
2023-03-19T11:48:51.125Z,19.67
2023-03-19T11:51:39.483Z,21.88
2023-03-19T11:54:12.161Z,21.98
2023-03-19T11:56:42.382Z,20.60
2023-03-19T11:59:14.127Z,20.40
2023-03-19T12:01:42.097Z,21.95
2023-03-19T12:04:28.210Z,22.45
2023-03-19T12:06:58.365Z,21.00
2023-03-19T12:09:38.888Z,25.35
2023-03-19T12:12:06.531Z,24.15
2023-03-19T12:14:40.894Z,20.58
2023-03-19T12:17:19.004Z,23.73
2023-03-19T12:20:16.089Z,24.20
2023-03-19T12:22:51.214Z,19.63
2023-03-19T12:25:31.224Z,17.92
2023-03-19T12:28:10.863Z,15.35
2023-03-19T12:30:42.569Z,15.27
2023-03-19T12:33:34.913Z,16.45
2023-03-19T12:36:04.876Z,18.75
2023-03-19T12:39:05.768Z,15.75
2023-03-19T12:41:37.807Z,17.35
2023-03-19T12:44:05.522Z,13.30
2023-03-19T12:47:02.286Z,16.45
2023-03-19T12:49:32.872Z,14.52
2023-03-19T12:52:04.629Z,15.40
2023-03-19T12:54:37.255Z,17.55
2023-03-19T12:57:08.155Z,14.52
2023-03-19T12:59:48.202Z,16.77
2023-03-19T13:02:21.736Z,14.65
2023-03-19T13:05:29.154Z,14.10
2023-03-19T13:07:57.827Z,17.67
2023-03-19T13:10:25.865Z,14.93
2023-03-19T13:13:02.724Z,17.38
2023-03-19T13:15:36.984Z,16.27
2023-03-19T13:18:08.228Z,18.15
2023-03-19T13:21:06.303Z,18.73
2023-03-19T13:23:37.181Z,18.88
2023-03-19T13:26:09.787Z,21.10
2023-03-19T13:29:04.442Z,17.83
2023-03-19T13:31:36.850Z,18.65
2023-03-19T13:34:17.482Z,17.00
2023-03-19T13:36:56.361Z,17.55
2023-03-19T13:39:29.954Z,19.23
2023-03-19T13:42:06.782Z,20.27
2023-03-19T13:44:44.370Z,20.48
2023-03-19T13:47:27.218Z,18.17
2023-03-19T13:50:07.166Z,21.08
2023-03-19T13:52:41.939Z,18.42
2023-03-19T13:55:30.373Z,18.40
2023-03-19T13:58:37.861Z,17.17
2023-03-19T14:01:35.793Z,18.48
2023-03-19T14:04:05.251Z,17.90
2023-03-19T14:06:36.453Z,17.48
2023-03-19T14:09:06.851Z,15.35
2023-03-19T14:11:36.586Z,16.98
2023-03-19T14:14:06.986Z,16.02
2023-03-19T14:16:37.815Z,17.73
2023-03-19T14:19:11.774Z,17.75
2023-03-19T14:21:47.376Z,17.15
2023-03-19T14:27:19.906Z,16.13
2023-03-19T14:29:51.256Z,16.88
2023-03-19T14:32:21.345Z,19.15
2023-03-19T14:34:50.840Z,17.27
2023-03-19T14:37:22.829Z,19.95
2023-03-19T14:39:54.220Z,17.05
2023-03-19T14:42:25.974Z,16.65
2023-03-19T14:45:14.500Z,15.40
2023-03-19T14:47:52.584Z,17.35
2023-03-19T14:50:34.018Z,18.08
2023-03-19T14:53:28.218Z,17.65
2023-03-19T14:55:56.392Z,19.15
2023-03-19T14:58:26.768Z,21.48
2023-03-19T15:01:07.617Z,16.48
2023-03-19T15:03:57.016Z,15.57
2023-03-19T15:06:26.950Z,18.08
2023-03-19T15:08:55.557Z,18.02
2023-03-19T15:11:24.618Z,18.25
2023-03-19T15:13:58.894Z,15.50
2023-03-19T15:16:29.798Z,17.10
2023-03-19T15:18:57.893Z,17.05
2023-03-19T15:21:28.759Z,18.45
2023-03-19T15:23:58.933Z,19.30
2023-03-19T15:26:33.771Z,19.42
2023-03-19T15:29:04.413Z,18.05
2023-03-19T15:31:54.784Z,16.63
2023-03-19T15:34:33.321Z,18.50
2023-03-19T15:37:15.438Z,16.50
2023-03-19T15:39:46.112Z,17.85
2023-03-19T15:42:16.408Z,16.08
2023-03-19T15:44:48.463Z,17.83
2023-03-19T15:47:24.541Z,17.05
2023-03-19T15:49:56.712Z,15.98
2023-03-19T15:52:24.830Z,16.65
2023-03-19T15:54:53.790Z,17.48
2023-03-19T15:57:21.616Z,16.27
2023-03-19T15:59:53.012Z,18.27
2023-03-19T16:02:29.147Z,15.00
2023-03-19T16:05:20.593Z,18.17
2023-03-19T16:07:45.313Z,17.88
2023-03-19T16:10:43.123Z,17.98
2023-03-19T16:13:29.898Z,23.48
2023-03-19T16:16:01.732Z,22.15
2023-03-19T16:18:31.161Z,19.02
2023-03-19T16:21:01.853Z,22.02
2023-03-19T16:23:35.394Z,18.73
2023-03-19T16:26:17.371Z,19.27
2023-03-19T16:28:47.979Z,20.45
2023-03-19T16:31:26.430Z,20.85
2023-03-19T16:33:54.620Z,16.67
2023-03-19T16:36:22.624Z,20.30
2023-03-19T16:38:55.192Z,20.45
2023-03-19T16:41:27.695Z,23.25
2023-03-19T16:43:55.518Z,20.10
2023-03-19T16:46:23.697Z,17.90
2023-03-19T16:48:52.573Z,20.83
2023-03-19T16:51:22.224Z,22.98
2023-03-19T16:53:49.958Z,20.05
2023-03-19T16:56:18.997Z,24.38
2023-03-19T16:58:49.809Z,21.90
2023-03-19T17:01:19.574Z,27.40
2023-03-19T17:03:50.111Z,22.88
2023-03-19T17:06:18.434Z,26.05
2023-03-19T17:08:48.247Z,26.30
2023-03-19T17:11:25.592Z,27.25
2023-03-19T17:13:54.028Z,22.42
2023-03-19T17:16:21.831Z,23.50
2023-03-19T17:18:51.055Z,32.03
2023-03-19T17:21:21.440Z,26.95
2023-03-19T17:23:49.725Z,25.88
2023-03-19T17:29:00.836Z,26.40
2023-03-19T17:31:33.963Z,29.27
2023-03-19T17:34:05.030Z,29.10
2023-03-19T17:36:34.056Z,33.50
2023-03-19T17:39:01.938Z,26.55
2023-03-19T17:41:38.663Z,33.25
2023-03-19T17:44:07.234Z,67.80
2023-03-19T17:46:38.794Z,69.72
2023-03-19T17:49:11.390Z,107.82
2023-03-19T17:51:39.100Z,178.55
2023-03-19T17:56:52.968Z,180.82
2023-03-19T17:59:20.730Z,80.07
2023-03-19T18:01:56.547Z,106.95
2023-03-19T18:04:25.909Z,123.70
2023-03-19T18:06:54.776Z,161.52
2023-03-19T18:09:25.055Z,168.15
2023-03-19T18:11:53.062Z,144.07
2023-03-19T18:14:22.802Z,147.63
2023-03-19T18:16:50.720Z,97.72
2023-03-19T18:19:38.268Z,81.00
2023-03-19T18:22:16.875Z,110.13
2023-03-19T18:24:44.847Z,180.73
2023-03-19T18:27:13.573Z,146.63
2023-03-19T18:29:42.024Z,176.88
2023-03-19T18:32:17.647Z,176.57
2023-03-19T18:34:45.500Z,156.73
2023-03-19T18:37:16.850Z,117.47
2023-03-19T18:39:44.572Z,168.98
2023-03-19T18:42:21.200Z,147.32
2023-03-19T18:44:49.050Z,180.32
2023-03-19T18:47:17.173Z,210.70
2023-03-19T18:49:48.022Z,144.50
2023-03-19T18:52:19.650Z,122.38
2023-03-19T18:54:47.765Z,81.93
2023-03-19T18:57:16.129Z,124.95
2023-03-19T18:59:43.986Z,101.22
2023-03-19T19:02:14.863Z,133.43
2023-03-19T19:04:43.803Z,147.88
2023-03-19T19:07:15.329Z,40.22
2023-03-19T19:09:43.240Z,73.35
2023-03-19T19:12:18.311Z,110.07
2023-03-19T19:14:46.785Z,60.77
2023-03-19T19:17:18.908Z,66.15
2023-03-19T19:19:47.024Z,85.03
2023-03-19T19:22:16.930Z,64.47
2023-03-19T19:24:44.791Z,79.88
2023-03-19T19:27:24.249Z,81.83
2023-03-19T19:29:52.421Z,156.27
2023-03-19T19:32:22.106Z,80.07
2023-03-19T19:34:50.520Z,158.47
2023-03-19T19:37:19.703Z,109.20
2023-03-19T19:39:49.338Z,126.85
2023-03-19T19:42:19.008Z,76.13
2023-03-19T19:44:56.678Z,143.45
2023-03-19T19:47:26.538Z,106.88
2023-03-19T19:49:54.183Z,126.15
2023-03-19T19:52:24.842Z,158.02
2023-03-19T19:54:54.440Z,67.63
2023-03-19T19:57:25.151Z,147.02
2023-03-19T19:59:54.064Z,75.70
2023-03-19T20:02:31.341Z,140.93
2023-03-19T20:05:01.101Z,112.23
2023-03-19T20:07:28.810Z,113.73
2023-03-19T20:10:01.606Z,66.10
2023-03-19T20:12:35.667Z,163.25
2023-03-19T20:15:03.444Z,154.68
2023-03-19T20:17:31.737Z,78.30
2023-03-19T20:19:59.627Z,57.13
2023-03-19T20:22:27.560Z,71.90
2023-03-19T20:24:56.755Z,91.27
2023-03-19T20:27:27.021Z,119.18
2023-03-19T20:29:57.592Z,80.72
2023-03-19T20:32:33.199Z,48.93
2023-03-19T20:35:01.345Z,132.00
2023-03-19T20:37:29.638Z,74.80
2023-03-19T20:39:57.578Z,75.47
2023-03-19T20:42:25.906Z,62.00
2023-03-19T20:44:57.340Z,83.95
2023-03-19T20:47:26.249Z,74.00
2023-03-19T20:49:56.472Z,89.85
2023-03-19T20:52:24.229Z,84.93
2023-03-19T20:54:53.602Z,72.70
2023-03-19T20:57:25.230Z,137.18
2023-03-19T20:59:52.867Z,120.93
2023-03-19T21:02:24.118Z,93.67
2023-03-19T21:05:26.875Z,64.80
2023-03-19T21:07:55.143Z,82.60
2023-03-19T21:10:33.232Z,124.40
2023-03-19T21:13:02.444Z,88.03
2023-03-19T21:15:30.535Z,144.30
2023-03-19T21:17:58.660Z,106.70
2023-03-19T21:20:28.874Z,111.23
2023-03-19T21:23:02.759Z,167.97
2023-03-19T21:25:31.226Z,171.07
2023-03-19T21:28:03.331Z,68.03
2023-03-19T21:30:31.340Z,110.53
2023-03-19T21:32:59.097Z,71.03
2023-03-19T21:35:27.871Z,76.22
2023-03-19T21:37:55.905Z,73.23
2023-03-19T21:40:26.984Z,151.05
2023-03-19T21:42:57.070Z,91.75
2023-03-19T21:45:29.310Z,171.80
2023-03-19T21:48:00.957Z,83.18
2023-03-19T21:50:28.631Z,56.80
2023-03-19T21:53:00.684Z,85.97
2023-03-19T21:55:29.998Z,85.87
2023-03-19T21:57:58.226Z,245.23
2023-03-19T22:00:26.200Z,216.20
2023-03-19T22:02:53.868Z,46.40
2023-03-19T22:05:23.252Z,118.40
2023-03-19T22:07:51.335Z,81.93
2023-03-19T22:10:20.212Z,77.10
2023-03-19T22:12:48.507Z,215.37
2023-03-19T22:15:21.519Z,104.10
2023-03-19T22:17:50.115Z,93.78
2023-03-19T22:20:19.240Z,117.80
2023-03-19T22:22:47.166Z,78.43
2023-03-19T22:25:15.585Z,66.53
2023-03-19T22:27:44.164Z,101.67
2023-03-19T22:30:21.002Z,90.68
2023-03-19T22:32:49.422Z,79.50
2023-03-19T22:35:19.187Z,160.47
2023-03-19T22:37:47.165Z,113.55
2023-03-19T22:40:16.463Z,87.47
2023-03-19T22:42:46.843Z,170.85
2023-03-19T22:45:17.247Z,84.47
2023-03-19T22:47:45.562Z,226.88
2023-03-19T22:50:17.597Z,116.30
2023-03-19T22:52:46.039Z,137.05
2023-03-19T22:55:13.846Z,83.13
2023-03-19T22:57:41.805Z,105.30
2023-03-19T23:00:13.324Z,93.70
2023-03-19T23:02:41.707Z,119.63
2023-03-19T23:05:29.647Z,132.65
2023-03-19T23:07:57.576Z,180.60
2023-03-19T23:10:26.881Z,124.68
2023-03-19T23:12:55.161Z,93.47
2023-03-19T23:15:23.801Z,103.07
2023-03-19T23:17:53.596Z,80.93
2023-03-19T23:20:22.318Z,96.57
2023-03-19T23:22:50.262Z,106.93
2023-03-19T23:25:19.520Z,151.83
2023-03-19T23:27:57.554Z,136.50
2023-03-19T23:30:30.307Z,92.07
2023-03-19T23:32:59.211Z,103.23
2023-03-19T23:35:28.204Z,61.93
2023-03-19T23:37:56.728Z,103.37
2023-03-19T23:40:26.416Z,71.03
2023-03-19T23:42:55.288Z,73.73
2023-03-19T23:45:32.099Z,101.43
2023-03-19T23:48:01.967Z,134.37
2023-03-19T23:50:29.734Z,96.80
2023-03-19T23:52:57.791Z,93.03
2023-03-19T23:55:25.718Z,93.23
2023-03-19T23:57:53.628Z,96.13
